Nuevo Baztan, Spain
Current Conditions -  °F | °C
As of 6:00 PM on Sunday 21 Dec 2014 (Local Time) from LETO Reporting Station
Clear Clear  
Wind Chill: 48°   Ceiling: Unl
Heat Index: 48°   Visibility: 6mi
Dew Point: 41°   Wind: 1mph
Humidity: 76%   Direction: 320°NW
Pressure: 30.45"   Gusts: NA
Location:  40.37°N, 3.24°W
Report Text: LETO 211700Z 32001KT CAVOK 09/05 Q1031 NOSIG
Loading
Personal Weather Stations






























Interactive Weather Map New forecast layout! Learn more

10-Day Weather Forecast

Advertisements
Track Severe Weather on mobile